Time;durP1;ratioP1;P1;durP2;ratioP2;P2;SDS_P1;SDS_P2;PMS_P1;PMS_P2;Temp;Humidity;BMP_temperature;BMP_pressure;BME280_temperature;BME280_humidity;BME280_pressure;Samples;Min_cycle;Max_cycle;Signal;HPM_P1;HPM_P2
2021/04/21 00:00:00;;;;;;;8.25;5.25;;;12.90;99.90;;;;;;4976211;28;20042;-66
2021/04/21 00:02:27;;;;;;;9.35;6.10;;;13.10;99.90;;;;;;4981053;28;20455;-66
2021/04/21 00:04:54;;;;;;;7.15;5.45;;;12.90;99.90;;;;;;4976256;28;20065;-66
2021/04/21 00:07:22;;;;;;;9.05;5.95;;;12.80;99.90;;;;;;4981121;28;20034;-66
2021/04/21 00:09:51;;;;;;;8.35;6.00;;;12.80;99.90;;;;;;4975746;28;20033;-66
2021/04/21 00:12:17;;;;;;;13.30;6.10;;;12.60;99.90;;;;;;4970826;28;20030;-66
2021/04/21 00:14:47;;;;;;;6.32;5.72;;;12.40;99.90;;;;;;4972074;28;20037;-66
2021/04/21 00:17:13;;;;;;;5.78;5.30;;;12.70;99.90;;;;;;4989114;28;20026;-66
2021/04/21 00:19:41;;;;;;;13.02;5.38;;;12.60;99.90;;;;;;4975981;28;20109;-66
2021/04/21 00:22:09;;;;;;;7.07;5.78;;;12.80;99.90;;;;;;4962546;28;20396;-66
2021/04/21 00:24:39;;;;;;;8.10;5.60;;;12.80;99.90;;;;;;4971857;28;20022;-66
2021/04/21 00:27:06;;;;;;;6.50;5.65;;;12.80;99.90;;;;;;4979575;28;20039;-66
2021/04/21 00:29:36;;;;;;;7.95;5.28;;;12.60;99.90;;;;;;4972570;28;20096;-66
2021/04/21 00:32:03;;;;;;;15.95;6.22;;;12.70;99.90;;;;;;4979095;28;20027;-66
2021/04/21 00:34:31;;;;;;;14.55;5.75;;;12.70;99.90;;;;;;4971619;28;20443;-67
2021/04/21 00:36:57;;;;;;;6.55;5.53;;;12.50;99.90;;;;;;4978093;28;20050;-66
2021/04/21 00:39:24;;;;;;;7.70;6.05;;;12.30;99.90;;;;;;4973377;28;20042;-66
2021/04/21 00:42:23;;;;;;;9.13;5.88;;;12.30;99.90;;;;;;4981844;28;20621;-66
2021/04/21 00:45:09;;;;;;;8.80;5.78;;;12.20;99.90;;;;;;4982512;28;20038;-66
2021/04/21 00:48:01;;;;;;;8.77;5.25;;;12.50;99.90;;;;;;4981683;28;20504;-67
2021/04/21 00:50:50;;;;;;;11.43;5.45;;;12.60;99.90;;;;;;4973906;28;20031;-68
2021/04/21 00:53:40;;;;;;;8.52;5.28;;;12.50;99.90;;;;;;4972203;28;20503;-68
2021/04/21 00:56:23;;;;;;;7.68;5.70;;;12.50;99.90;;;;;;4984556;28;20042;-68
2021/04/21 00:59:03;;;;;;;9.57;5.90;;;12.20;99.90;;;;;;4979030;28;20438;-68
2021/04/21 01:01:31;;;;;;;6.53;5.63;;;12.20;99.90;;;;;;4976615;28;20042;-67
2021/04/21 01:03:57;;;;;;;9.45;6.07;;;12.20;99.90;;;;;;4970697;28;20046;-67
2021/04/21 01:06:30;;;;;;;7.60;6.25;;;12.30;99.90;;;;;;4982748;28;20019;-67
2021/04/21 01:08:58;;;;;;;10.07;6.70;;;12.10;99.90;;;;;;4960577;28;20602;-66
2021/04/21 01:11:38;;;;;;;12.73;6.13;;;12.10;99.90;;;;;;4972121;28;20050;-68
2021/04/21 01:14:12;;;;;;;10.95;5.88;;;12.30;99.90;;;;;;4977650;28;20023;-68
2021/04/21 01:16:39;;;;;;;7.82;5.80;;;12.10;99.90;;;;;;4981251;28;20057;-67
2021/04/21 01:19:23;;;;;;;7.90;6.05;;;12.20;99.90;;;;;;4977578;28;20676;-68
2021/04/21 01:21:57;;;;;;;8.52;5.78;;;12.20;99.90;;;;;;4981937;28;20061;-67
2021/04/21 01:24:49;;;;;;;9.93;6.18;;;12.20;99.90;;;;;;4978754;28;20033;-67
2021/04/21 01:27:20;;;;;;;6.90;5.72;;;12.00;99.90;;;;;;4971482;28;20039;-68
2021/04/21 01:29:49;;;;;;;10.68;6.88;;;12.00;99.90;;;;;;4979877;28;20101;-68
2021/04/21 01:32:18;;;;;;;12.02;6.63;;;11.70;99.90;;;;;;4983611;28;20034;-68
2021/04/21 01:34:46;;;;;;;8.80;6.45;;;12.00;99.90;;;;;;4980627;28;20038;-68
2021/04/21 01:37:13;;;;;;;7.82;5.78;;;12.00;99.90;;;;;;4983414;28;20460;-67
2021/04/21 01:39:48;;;;;;;7.45;6.07;;;12.10;99.90;;;;;;4981201;28;20118;-68
2021/04/21 01:42:17;;;;;;;6.85;5.75;;;12.20;99.90;;;;;;4974132;28;20434;-68
2021/04/21 01:44:46;;;;;;;6.97;5.90;;;12.20;99.90;;;;;;4981769;28;20065;-68
2021/04/21 01:47:17;;;;;;;10.45;6.30;;;12.20;99.90;;;;;;4974472;28;20023;-70
2021/04/21 01:50:03;;;;;;;11.95;6.38;;;12.10;99.90;;;;;;4981765;28;20487;-67
2021/04/21 01:52:37;;;;;;;8.30;5.35;;;12.10;99.90;;;;;;4976358;28;20031;-68
2021/04/21 01:55:25;;;;;;;9.77;6.00;;;12.10;99.90;;;;;;4976434;28;20042;-68
2021/04/21 01:58:03;;;;;;;7.97;6.03;;;11.90;99.90;;;;;;4980831;28;20031;-68
2021/04/21 02:00:36;;;;;;;7.43;5.95;;;11.90;99.90;;;;;;4976889;28;20105;-67
2021/04/21 02:03:25;;;;;;;10.00;5.90;;;11.90;99.90;;;;;;4981251;28;20023;-67
2021/04/21 02:06:06;;;;;;;8.55;5.85;;;11.90;99.90;;;;;;4977951;28;20055;-68
2021/04/21 02:08:53;;;;;;;11.02;5.72;;;12.00;99.90;;;;;;4975995;28;20027;-67
2021/04/21 02:11:24;;;;;;;9.93;5.93;;;12.10;99.90;;;;;;4983729;28;20131;-67
2021/04/21 02:13:53;;;;;;;7.95;5.88;;;12.10;99.90;;;;;;4973623;28;20081;-68
2021/04/21 02:16:28;;;;;;;7.68;5.68;;;12.00;99.90;;;;;;4977038;28;20030;-68
2021/04/21 02:19:15;;;;;;;11.35;6.15;;;12.10;99.90;;;;;;4972636;28;20026;-67
2021/04/21 02:21:58;;;;;;;14.40;6.70;;;12.00;99.90;;;;;;4980018;28;20051;-68
2021/04/21 02:24:39;;;;;;;8.23;6.15;;;11.90;99.90;;;;;;4975452;28;20102;-68
2021/04/21 02:27:07;;;;;;;9.50;6.43;;;11.80;99.90;;;;;;4981547;28;20026;-68
2021/04/21 02:29:40;;;;;;;8.88;5.93;;;11.80;99.90;;;;;;4976134;28;20447;-68
2021/04/21 02:32:42;;;;;;;13.43;7.30;;;11.80;99.90;;;;;;4979335;28;20025;-67
2021/04/21 02:35:17;;;;;;;10.57;6.57;;;11.40;99.90;;;;;;4980044;28;20030;-68
2021/04/21 02:38:02;;;;;;;13.52;6.68;;;11.20;99.90;;;;;;4972410;28;20090;-68
2021/04/21 02:40:34;;;;;;;10.82;6.07;;;11.30;99.90;;;;;;4974410;28;20146;-68
2021/04/21 02:43:06;;;;;;;10.52;5.80;;;11.50;99.90;;;;;;4969025;28;20027;-68
2021/04/21 02:45:40;;;;;;;9.50;6.25;;;11.50;99.90;;;;;;4981917;28;20027;-68
2021/04/21 02:48:27;;;;;;;10.73;6.30;;;11.50;99.90;;;;;;4973110;28;20495;-68
2021/04/21 02:51:09;;;;;;;9.85;6.38;;;11.40;99.90;;;;;;4984766;28;20573;-68
2021/04/21 02:54:14;;;;;;;11.38;6.28;;;11.50;99.90;;;;;;4971191;28;20038;-68
2021/04/21 02:56:49;;;;;;;9.55;5.88;;;11.50;99.90;;;;;;4939358;28;20040;-68
2021/04/21 02:59:18;;;;;;;7.07;5.75;;;11.70;99.90;;;;;;4969169;28;20042;-68
2021/04/21 03:02:06;;;;;;;9.68;6.20;;;11.50;99.90;;;;;;4980749;28;20526;-68
2021/04/21 03:04:54;;;;;;;9.95;6.05;;;11.60;99.90;;;;;;4975504;28;20633;-67
2021/04/21 03:07:51;;;;;;;12.60;6.55;;;11.40;99.90;;;;;;4971380;28;20458;-68
2021/04/21 03:10:18;;;;;;;12.00;6.75;;;11.50;99.90;;;;;;4977249;28;20039;-68
2021/04/21 03:12:51;;;;;;;11.68;6.53;;;11.40;99.90;;;;;;4979819;28;20431;-68
2021/04/21 03:15:21;;;;;;;12.45;7.10;;;11.30;99.90;;;;;;4975726;28;20061;-67
2021/04/21 03:17:49;;;;;;;10.32;6.80;;;11.10;99.90;;;;;;4978934;28;20093;-68
2021/04/21 03:20:18;;;;;;;13.52;7.20;;;11.10;99.90;;;;;;4978001;28;20134;-68
2021/04/21 03:22:47;;;;;;;12.38;6.63;;;11.10;99.90;;;;;;4984030;28;20043;-68
2021/04/21 03:25:25;;;;;;;11.55;6.55;;;11.00;99.90;;;;;;4974550;28;20098;-68
2021/04/21 03:27:55;;;;;;;17.75;7.28;;;11.00;99.90;;;;;;4977581;28;20035;-67
2021/04/21 03:30:24;;;;;;;11.27;7.03;;;11.00;99.90;;;;;;4976435;28;20590;-68
2021/04/21 03:32:57;;;;;;;10.65;7.13;;;11.20;99.90;;;;;;4978031;28;20023;-68
2021/04/21 03:35:24;;;;;;;12.43;7.22;;;11.20;99.90;;;;;;4976139;28;20102;-67
2021/04/21 03:38:09;;;;;;;11.90;7.05;;;11.20;99.90;;;;;;4979180;28;20105;-68
2021/04/21 03:40:39;;;;;;;12.73;6.75;;;11.00;99.90;;;;;;4976104;28;20041;-67
2021/04/21 03:43:06;;;;;;;11.35;6.95;;;10.90;99.90;;;;;;4979697;28;20546;-67
2021/04/21 03:45:33;;;;;;;14.95;7.10;;;10.90;99.90;;;;;;4976367;28;20031;-68
2021/04/21 03:48:00;;;;;;;16.55;6.60;;;11.00;99.90;;;;;;4980557;28;20031;-68
2021/04/21 03:50:27;;;;;;;11.27;6.78;;;11.10;99.90;;;;;;4978394;28;20033;-67
2021/04/21 03:52:56;;;;;;;14.07;6.68;;;11.00;99.90;;;;;;4981776;28;20051;-68
2021/04/21 03:55:22;;;;;;;12.80;7.15;;;11.00;99.90;;;;;;4976315;28;20583;-68
2021/04/21 03:57:52;;;;;;;12.77;6.65;;;11.00;99.90;;;;;;4982489;28;20019;-68
2021/04/21 04:00:20;;;;;;;12.27;7.30;;;11.00;99.90;;;;;;4978377;28;20503;-67
2021/04/21 04:02:57;;;;;;;13.60;7.85;;;11.00;99.90;;;;;;4984832;28;20027;-66
2021/04/21 04:05:48;;;;;;;14.18;7.88;;;10.70;99.90;;;;;;4974563;28;20034;-66
2021/04/21 04:08:16;;;;;;;12.60;7.72;;;10.70;99.90;;;;;;4962452;28;20070;-66
2021/04/21 04:10:49;;;;;;;15.88;7.57;;;10.70;99.90;;;;;;4975598;28;20031;-66
2021/04/21 04:13:16;;;;;;;19.17;8.60;;;10.70;99.90;;;;;;4958611;28;20044;-66
2021/04/21 04:15:43;;;;;;;17.48;8.57;;;10.40;99.90;;;;;;4974586;28;20038;-66
2021/04/21 04:18:13;;;;;;;18.45;8.45;;;10.50;99.90;;;;;;4977006;28;20033;-66
2021/04/21 04:20:43;;;;;;;14.40;8.50;;;10.40;99.90;;;;;;4974754;28;20047;-66
2021/04/21 04:23:11;;;;;;;16.17;8.90;;;10.50;99.90;;;;;;4977902;28;20113;-66
2021/04/21 04:25:46;;;;;;;18.70;8.75;;;10.40;99.90;;;;;;4972176;28;20041;-66
2021/04/21 04:28:12;;;;;;;16.17;8.85;;;10.30;99.90;;;;;;4970413;28;20102;-66
2021/04/21 04:30:39;;;;;;;21.20;9.43;;;10.30;99.90;;;;;;4975556;28;20027;-66
2021/04/21 04:33:06;;;;;;;15.07;10.00;;;10.40;99.90;;;;;;4980018;28;20023;-66
2021/04/21 04:35:34;;;;;;;17.73;10.63;;;10.10;99.90;;;;;;4974823;28;20039;-66
2021/04/21 04:38:01;;;;;;;20.35;9.30;;;10.00;99.90;;;;;;4970018;28;20019;-66
2021/04/21 04:40:28;;;;;;;26.30;10.48;;;10.10;99.90;;;;;;4974763;28;20066;-66
2021/04/21 04:42:55;;;;;;;19.40;10.00;;;10.20;99.90;;;;;;4982069;28;20158;-66
2021/04/21 04:45:23;;;;;;;11.88;9.57;;;10.20;99.90;;;;;;4993138;28;20110;-66
2021/04/21 04:47:52;;;;;;;20.50;10.00;;;10.10;99.90;;;;;;4984776;28;20475;-66
2021/04/21 04:50:20;;;;;;;25.63;9.57;;;10.10;99.90;;;;;;4975762;28;20118;-66
2021/04/21 04:52:52;;;;;;;21.52;10.65;;;10.00;99.90;;;;;;4982652;28;20130;-66
2021/04/21 04:55:19;;;;;;;19.10;9.30;;;10.10;99.90;;;;;;4975466;28;20503;-66
2021/04/21 04:57:48;;;;;;;19.20;9.35;;;10.10;99.90;;;;;;4970678;28;20467;-66
2021/04/21 05:00:17;;;;;;;19.35;9.95;;;10.10;99.90;;;;;;4960371;28;20122;-64
2021/04/21 05:03:05;;;;;;;16.58;9.63;;;10.40;99.90;;;;;;4951083;28;20102;-65
2021/04/21 05:05:34;;;;;;;15.32;10.15;;;10.10;99.90;;;;;;4966939;28;20042;-65
2021/04/21 05:08:05;;;;;;;17.52;10.18;;;10.10;99.90;;;;;;4960870;28;20027;-64
2021/04/21 05:10:41;;;;;;;20.05;9.60;;;10.00;99.90;;;;;;4970337;28;20026;-64
2021/04/21 05:13:13;;;;;;;27.00;10.07;;;10.00;99.90;;;;;;4955453;28;20042;-64
2021/04/21 05:15:38;;;;;;;22.17;10.60;;;10.10;99.90;;;;;;4979598;28;20105;-64
2021/04/21 05:18:13;;;;;;;16.17;11.00;;;9.90;99.90;;;;;;4971780;28;20105;-65
2021/04/21 05:21:09;;;;;;;22.48;10.55;;;10.00;99.90;;;;;;4974523;28;20046;-64
2021/04/21 05:24:11;;;;;;;22.38;10.45;;;10.00;99.90;;;;;;4965378;28;20039;-65
2021/04/21 05:26:55;;;;;;;23.13;10.65;;;10.00;99.90;;;;;;4955876;28;20042;-65
2021/04/21 05:30:03;;;;;;;19.20;11.40;;;10.10;99.90;;;;;;4955856;28;20031;-65
2021/04/21 05:32:56;;;;;;;19.88;11.23;;;9.90;99.90;;;;;;4932750;28;20039;-67
2021/04/21 05:35:59;;;;;;;22.45;11.02;;;10.00;99.90;;;;;;4961114;28;20039;-65
2021/04/21 05:38:46;;;;;;;18.33;10.02;;;10.10;99.90;;;;;;4961268;28;20027;-67
2021/04/21 05:41:39;;;;;;;21.00;10.80;;;10.00;99.90;;;;;;4970357;28;20105;-64
2021/04/21 05:44:32;;;;;;;20.67;10.30;;;10.20;99.90;;;;;;4958115;28;20608;-64
2021/04/21 05:47:40;;;;;;;18.42;9.90;;;10.40;99.90;;;;;;4970591;28;20037;-65
2021/04/21 05:50:06;;;;;;;19.25;10.68;;;10.20;99.90;;;;;;4966758;28;20535;-64
2021/04/21 05:52:53;;;;;;;27.73;10.15;;;10.10;99.90;;;;;;4968141;28;20102;-68
2021/04/21 05:55:59;;;;;;;16.20;9.77;;;10.30;99.90;;;;;;4976469;28;20085;-66
2021/04/21 05:58:52;;;;;;;14.25;10.48;;;10.50;99.90;;;;;;4964502;28;20030;-66
2021/04/21 06:01:24;;;;;;;23.83;11.20;;;10.30;99.90;;;;;;4983567;28;20038;-66
2021/04/21 06:03:54;;;;;;;13.73;9.95;;;10.30;99.90;;;;;;4978316;28;20031;-68
2021/04/21 06:06:19;;;;;;;19.38;9.82;;;10.40;99.90;;;;;;4972691;28;20010;-65
2021/04/21 06:08:45;;;;;;;19.63;9.90;;;10.60;99.90;;;;;;4972756;28;20514;-67
2021/04/21 06:11:28;;;;;;;14.32;10.10;;;10.70;99.90;;;;;;4977207;28;20129;-67
2021/04/21 06:13:59;;;;;;;14.82;9.43;;;10.70;99.90;;;;;;4973503;28;20033;-68
2021/04/21 06:16:26;;;;;;;18.00;9.98;;;10.80;99.90;;;;;;4962937;28;20708;-67
2021/04/21 06:19:13;;;;;;;18.58;9.80;;;10.60;99.90;;;;;;4972978;28;20026;-68
2021/04/21 06:21:40;;;;;;;19.52;10.00;;;10.70;99.90;;;;;;4985239;28;20054;-68
2021/04/21 06:24:29;;;;;;;14.27;9.73;;;10.80;99.90;;;;;;4978410;28;20093;-67
2021/04/21 06:27:11;;;;;;;17.77;10.40;;;11.00;99.90;;;;;;4984661;28;20176;-68
2021/04/21 06:29:38;;;;;;;28.27;9.23;;;11.10;99.90;;;;;;4963617;28;20022;-68
2021/04/21 06:32:06;;;;;;;11.70;9.40;;;11.10;99.90;;;;;;4964521;28;20019;-68
2021/04/21 06:34:33;;;;;;;17.23;9.23;;;11.20;99.90;;;;;;4961990;28;20027;-67
2021/04/21 06:36:59;;;;;;;13.63;9.68;;;11.30;99.90;;;;;;4969527;28;20023;-68
2021/04/21 06:39:29;;;;;;;19.38;10.43;;;11.30;99.90;;;;;;4962308;28;20059;-68
2021/04/21 06:42:00;;;;;;;14.27;9.60;;;11.20;99.90;;;;;;4965941;28;20035;-68
2021/04/21 06:44:42;;;;;;;13.98;9.70;;;11.40;99.90;;;;;;4960217;28;20038;-66
2021/04/21 06:47:18;;;;;;;23.15;9.48;;;11.40;99.90;;;;;;4973006;28;20110;-68
2021/04/21 06:49:44;;;;;;;16.10;9.18;;;11.50;99.90;;;;;;4964560;28;20437;-66
2021/04/21 06:52:14;;;;;;;19.85;9.40;;;11.50;99.90;;;;;;4971994;28;20089;-66
2021/04/21 06:54:40;;;;;;;20.30;9.40;;;11.60;99.90;;;;;;4967167;28;20035;-66
2021/04/21 06:57:06;;;;;;;17.60;8.32;;;11.70;99.90;;;;;;4964429;28;20026;-66
2021/04/21 06:59:31;;;;;;;17.38;8.27;;;11.80;99.90;;;;;;4974662;28;20106;-68
2021/04/21 07:01:57;;;;;;;11.80;8.25;;;11.90;99.90;;;;;;4969783;28;20026;-68
2021/04/21 07:04:23;;;;;;;13.27;8.40;;;11.80;99.90;;;;;;4973172;28;20038;-69
2021/04/21 07:06:50;;;;;;;13.27;8.10;;;12.00;99.90;;;;;;4979614;28;20027;-68
2021/04/21 07:09:20;;;;;;;14.90;7.68;;;12.10;99.90;;;;;;4973093;28;20398;-69
2021/04/21 07:11:55;;;;;;;20.65;9.00;;;12.10;99.90;;;;;;4977153;28;20140;-69
2021/04/21 07:14:22;;;;;;;12.45;8.43;;;11.80;99.90;;;;;;4967081;28;20054;-71
2021/04/21 07:16:54;;;;;;;12.63;8.07;;;11.80;99.90;;;;;;4975033;28;20061;-69
2021/04/21 07:19:22;;;;;;;20.38;7.80;;;11.90;99.90;;;;;;4972660;28;20065;-73
2021/04/21 07:21:48;;;;;;;19.17;7.95;;;12.10;99.90;;;;;;4971810;28;20050;-72
2021/04/21 07:24:17;;;;;;;15.45;6.15;;;12.10;99.90;;;;;;4972477;28;20078;-73
2021/04/21 07:26:44;;;;;;;16.13;8.40;;;12.70;99.90;;;;;;4966394;28;20035;-68
2021/04/21 07:29:17;;;;;;;13.73;8.05;;;12.10;99.90;;;;;;4971763;28;20027;-71
2021/04/21 07:31:43;;;;;;;12.15;7.78;;;12.10;99.90;;;;;;4967248;28;20022;-71
2021/04/21 07:34:12;;;;;;;12.63;9.07;;;12.20;99.90;;;;;;4972192;28;20034;-70
2021/04/21 07:36:46;;;;;;;13.73;8.57;;;12.10;99.90;;;;;;4972704;28;20030;-70
2021/04/21 07:39:12;;;;;;;13.00;8.57;;;12.20;99.90;;;;;;4957371;28;20026;-68
2021/04/21 07:41:39;;;;;;;14.02;9.00;;;12.20;99.90;;;;;;4966290;28;20062;-71
2021/04/21 07:44:24;;;;;;;11.15;8.65;;;12.40;99.90;;;;;;4960759;28;20244;-70
2021/04/21 07:46:59;;;;;;;11.85;9.50;;;12.60;99.90;;;;;;4968729;28;20026;-69
2021/04/21 07:49:29;;;;;;;14.60;9.23;;;12.70;99.90;;;;;;4971773;28;20491;-70
2021/04/21 07:51:55;;;;;;;18.83;9.13;;;12.90;99.90;;;;;;4973391;28;20030;-69
2021/04/21 07:54:23;;;;;;;18.58;8.60;;;13.00;99.90;;;;;;4942980;28;20376;-69
2021/04/21 07:56:50;;;;;;;12.85;9.25;;;13.30;99.90;;;;;;4972706;28;20122;-70
2021/04/21 07:59:28;;;;;;;12.98;7.95;;;13.30;99.90;;;;;;4966963;28;20019;-69
2021/04/21 08:02:00;;;;;;;9.10;7.78;;;13.60;99.90;;;;;;4969641;28;20043;-70
2021/04/21 08:04:27;;;;;;;8.40;7.50;;;13.60;99.90;;;;;;4971423;28;20027;-69
2021/04/21 08:06:58;;;;;;;12.90;7.82;;;13.70;99.90;;;;;;4976468;28;20018;-73
2021/04/21 08:09:35;;;;;;;9.60;7.50;;;13.60;99.90;;;;;;4961174;28;21639;-69
2021/04/21 08:12:14;;;;;;;8.65;6.47;;;13.70;99.90;;;;;;4972730;28;20049;-69
2021/04/21 08:14:49;;;;;;;9.57;6.88;;;13.80;99.90;;;;;;4973888;28;20058;-70
2021/04/21 08:17:16;;;;;;;8.45;6.30;;;14.20;99.90;;;;;;4964662;28;20019;-69
2021/04/21 08:19:47;;;;;;;12.48;6.63;;;14.40;99.90;;;;;;4970455;28;20026;-69
2021/04/21 08:22:22;;;;;;;14.52;6.88;;;14.40;99.90;;;;;;4963959;28;20098;-70
2021/04/21 08:24:47;;;;;;;10.00;7.13;;;14.20;99.90;;;;;;4963761;28;20030;-70
2021/04/21 08:27:15;;;;;;;13.13;6.85;;;13.70;99.90;;;;;;4963002;28;20031;-71
2021/04/21 08:29:46;;;;;;;10.27;6.28;;;13.80;99.90;;;;;;4974796;28;20023;-69
2021/04/21 08:32:19;;;;;;;12.05;7.55;;;13.90;99.90;;;;;;4970660;28;20050;-69
2021/04/21 08:34:46;;;;;;;10.52;6.55;;;14.20;99.90;;;;;;4972407;28;20061;-70
2021/04/21 08:37:12;;;;;;;8.90;5.82;;;14.20;99.90;;;;;;4987360;28;20141;-70
2021/04/21 08:39:39;;;;;;;8.70;6.10;;;14.30;99.90;;;;;;4974603;28;20033;-69
2021/04/21 08:42:07;;;;;;;5.75;5.30;;;14.40;99.90;;;;;;4973477;28;20377;-69
2021/04/21 08:44:36;;;;;;;7.60;5.97;;;14.30;99.90;;;;;;4960676;28;20066;-70
2021/04/21 08:47:03;;;;;;;8.90;6.43;;;14.50;99.90;;;;;;4981299;28;20105;-69
2021/04/21 08:49:31;;;;;;;7.55;5.53;;;14.40;99.90;;;;;;4973857;28;20038;-70
2021/04/21 08:51:58;;;;;;;9.77;5.28;;;14.80;99.90;;;;;;4972159;28;20048;-69
2021/04/21 08:54:27;;;;;;;7.35;5.70;;;14.80;99.90;;;;;;4973245;28;20073;-70
2021/04/21 08:56:54;;;;;;;11.90;7.00;;;14.90;99.90;;;;;;4985713;28;20072;-69
2021/04/21 08:59:20;;;;;;;6.70;5.03;;;14.60;99.90;;;;;;4975651;28;20026;-69
2021/04/21 09:01:47;;;;;;;6.97;5.50;;;14.30;99.90;;;;;;4980838;28;20625;-70
2021/04/21 09:04:17;;;;;;;12.60;5.65;;;14.90;99.90;;;;;;4980506;28;20030;-69
2021/04/21 09:06:45;;;;;;;6.30;5.22;;;15.10;99.90;;;;;;4971337;28;20027;-69
2021/04/21 09:09:13;;;;;;;7.30;5.80;;;15.30;99.90;;;;;;4974487;28;20105;-70
2021/04/21 09:11:39;;;;;;;8.20;5.60;;;15.30;99.90;;;;;;4983343;28;20022;-69
2021/04/21 09:14:04;;;;;;;8.85;5.45;;;15.40;99.90;;;;;;4975240;28;20043;-70
2021/04/21 09:16:30;;;;;;;6.00;5.40;;;15.50;99.90;;;;;;4983773;28;20023;-69
2021/04/21 09:18:56;;;;;;;8.40;5.20;;;15.60;99.90;;;;;;4974607;28;20113;-69
2021/04/21 09:21:26;;;;;;;11.05;5.40;;;15.80;99.90;;;;;;4984154;28;20058;-69
2021/04/21 09:23:52;;;;;;;10.00;5.45;;;15.90;99.90;;;;;;4974438;28;20038;-69
2021/04/21 09:26:23;;;;;;;6.63;5.60;;;16.10;99.90;;;;;;4986792;28;20026;-69
2021/04/21 09:28:53;;;;;;;7.70;4.72;;;16.40;99.90;;;;;;4973562;28;20081;-69
2021/04/21 09:31:24;;;;;;;8.30;4.97;;;16.30;99.90;;;;;;4973318;28;20023;-69
2021/04/21 09:34:12;;;;;;;15.20;5.57;;;16.70;99.90;;;;;;4974069;28;20030;-68
2021/04/21 09:36:47;;;;;;;8.25;5.38;;;15.90;99.90;;;;;;4981470;28;20026;-70
2021/04/21 09:39:21;;;;;;;6.18;4.93;;;15.90;99.90;;;;;;4974855;28;20022;-69
2021/04/21 09:41:50;;;;;;;6.95;4.68;;;16.10;99.90;;;;;;4977074;28;20034;-70
2021/04/21 09:44:20;;;;;;;9.00;4.90;;;16.60;99.90;;;;;;4965364;28;20062;-69
2021/04/21 09:46:48;;;;;;;5.93;4.40;;;16.70;99.90;;;;;;4968839;28;20527;-70
2021/04/21 09:49:33;;;;;;;8.65;4.85;;;16.60;99.90;;;;;;4965378;28;20022;-70
2021/04/21 09:52:02;;;;;;;7.63;4.75;;;16.30;99.90;;;;;;4970739;28;20042;-70
2021/04/21 09:54:38;;;;;;;9.40;4.93;;;16.40;99.90;;;;;;4975509;28;20026;-69
2021/04/21 09:57:17;;;;;;;7.80;4.07;;;16.60;99.90;;;;;;4973811;28;20105;-69
2021/04/21 10:00:01;;;;;;;5.57;4.43;;;16.60;99.90;;;;;;4973573;28;20141;-69
2021/04/21 10:02:35;;;;;;;5.78;4.32;;;16.60;99.90;;;;;;4980808;28;20046;-68
2021/04/21 10:05:35;;;;;;;7.15;4.57;;;16.70;99.90;;;;;;4977299;28;20081;-69
2021/04/21 10:08:11;;;;;;;6.55;4.15;;;17.00;99.90;;;;;;4985007;28;20023;-70
2021/04/21 10:10:37;;;;;;;10.30;3.83;;;16.40;99.90;;;;;;4978115;28;20034;-67
2021/04/21 10:13:45;;;;;;;5.00;3.47;;;16.60;99.90;;;;;;4979873;28;20038;-68
2021/04/21 10:16:12;;;;;;;5.80;3.83;;;17.00;99.90;;;;;;4968576;28;20043;-70
2021/04/21 10:18:38;;;;;;;4.18;3.80;;;16.60;99.90;;;;;;4977812;28;20117;-67
2021/04/21 10:21:05;;;;;;;4.30;3.90;;;16.60;99.90;;;;;;4979047;28;20038;-68
2021/04/21 10:23:31;;;;;;;9.18;4.22;;;16.50;99.90;;;;;;4980382;28;20487;-67
2021/04/21 10:26:05;;;;;;;4.75;4.10;;;16.40;99.90;;;;;;4978009;28;20054;-67
2021/04/21 10:28:33;;;;;;;5.47;4.00;;;16.70;99.90;;;;;;4981322;28;20031;-67
2021/04/21 10:31:01;;;;;;;4.40;3.65;;;17.00;99.90;;;;;;4977900;28;20029;-67
2021/04/21 10:33:27;;;;;;;7.65;3.78;;;17.10;99.90;;;;;;4982038;28;20022;-67
2021/04/21 10:35:55;;;;;;;4.55;3.47;;;17.00;99.90;;;;;;4980743;28;20507;-66
2021/04/21 10:38:26;;;;;;;6.38;4.25;;;17.00;99.90;;;;;;4984084;28;20074;-68
2021/04/21 10:41:21;;;;;;;7.07;4.45;;;17.00;99.90;;;;;;4978661;28;20041;-67
2021/04/21 10:43:49;;;;;;;5.72;3.25;;;17.10;99.90;;;;;;4955287;28;20147;-68
2021/04/21 10:46:15;;;;;;;5.22;3.53;;;17.10;99.90;;;;;;4976920;28;20039;-68
2021/04/21 10:48:45;;;;;;;3.53;3.22;;;17.30;99.90;;;;;;4971725;28;20694;-67
2021/04/21 10:51:40;;;;;;;4.63;3.58;;;17.60;99.90;;;;;;4977191;28;20022;-68
2021/04/21 10:54:09;;;;;;;5.35;4.38;;;17.80;99.90;;;;;;4977933;28;20053;-67
2021/04/21 10:56:36;;;;;;;6.00;3.53;;;17.20;99.90;;;;;;4961054;28;20448;-66
2021/04/21 10:59:04;;;;;;;5.18;3.38;;;17.30;99.90;;;;;;4962049;28;20133;-67
2021/04/21 11:01:34;;;;;;;5.07;2.95;;;17.70;99.90;;;;;;4973810;28;20125;-67
2021/04/21 11:04:01;;;;;;;4.38;2.80;;;17.80;99.90;;;;;;4972897;28;20019;-67
2021/04/21 11:06:39;;;;;;;3.38;3.17;;;18.60;99.90;;;;;;4980756;28;20449;-66
2021/04/21 11:09:06;;;;;;;6.30;3.38;;;18.10;99.90;;;;;;4973127;28;20436;-66
2021/04/21 11:11:47;;;;;;;9.82;3.20;;;17.80;99.90;;;;;;4974599;28;20052;-66
2021/04/21 11:14:36;;;;;;;7.40;3.20;;;18.00;99.90;;;;;;4973134;28;20154;-66
2021/04/21 11:17:06;;;;;;;4.15;2.80;;;17.80;99.90;;;;;;4980380;28;20027;-66
2021/04/21 11:19:38;;;;;;;6.00;3.00;;;18.40;99.90;;;;;;4974852;28;20031;-66
2021/04/21 11:22:17;;;;;;;5.80;3.35;;;18.40;99.90;;;;;;4971601;28;20047;-67
2021/04/21 11:24:44;;;;;;;4.90;3.22;;;17.70;99.90;;;;;;4963604;28;20031;-67
2021/04/21 11:27:44;;;;;;;5.32;2.90;;;18.10;99.90;;;;;;4977846;28;20030;-66
2021/04/21 11:30:32;;;;;;;2.50;2.30;;;18.10;99.90;;;;;;4973327;28;20035;-66
2021/04/21 11:32:58;;;;;;;5.28;2.55;;;19.00;99.90;;;;;;4976940;28;20105;-66
2021/04/21 11:35:33;;;;;;;3.92;2.90;;;19.60;99.90;;;;;;4966425;28;20491;-66
2021/04/21 11:37:59;;;;;;;7.53;2.73;;;19.20;99.90;;;;;;4963174;28;20479;-66
2021/04/21 11:40:30;;;;;;;4.88;2.58;;;18.90;99.90;;;;;;4971581;28;20042;-66
2021/04/21 11:43:16;;;;;;;4.00;2.67;;;19.30;99.90;;;;;;4961638;28;20034;-65
2021/04/21 11:45:43;;;;;;;6.65;2.83;;;19.10;99.90;;;;;;4968066;28;20038;-66
2021/04/21 11:48:09;;;;;;;6.07;3.13;;;18.50;99.90;;;;;;4959688;28;20081;-66
2021/04/21 11:50:42;;;;;;;5.07;2.60;;;18.50;99.90;;;;;;4958243;28;20035;-66
2021/04/21 11:53:13;;;;;;;3.00;2.25;;;18.50;99.90;;;;;;4954291;28;20049;-66
2021/04/21 11:58:30;;;;;;;4.28;2.50;;;18.00;99.90;;;;;;4953784;28;20039;-66
2021/04/21 12:01:06;;;;;;;;;;;18.60;99.90;;;;;;4968470;28;20043;-66
2021/04/21 12:03:46;;;;;;;5.68;2.30;;;19.30;99.90;;;;;;4952061;28;19906;-66
2021/04/21 12:06:16;;;;;;;3.40;2.03;;;19.30;99.90;;;;;;4965983;28;20062;-66
2021/04/21 12:08:47;;;;;;;2.20;1.63;;;18.50;99.90;;;;;;4969339;28;20085;-66
2021/04/21 12:11:13;;;;;;;2.60;2.05;;;18.60;99.90;;;;;;4981821;28;20154;-66
2021/04/21 12:13:40;;;;;;;6.18;1.88;;;18.90;99.90;;;;;;4971064;28;20031;-66
2021/04/21 12:16:20;;;;;;;2.40;2.00;;;19.00;99.90;;;;;;4975285;28;20035;-66
2021/04/21 12:18:49;;;;;;;7.70;2.30;;;18.70;99.90;;;;;;4981347;28;20479;-67
2021/04/21 12:21:15;;;;;;;3.90;1.77;;;19.10;99.90;;;;;;4976489;28;20039;-67
2021/04/21 12:23:42;;;;;;;2.92;2.28;;;20.00;99.90;;;;;;4986318;28;20467;-66
2021/04/21 12:26:18;;;;;;;3.22;2.10;;;20.80;99.90;;;;;;4981057;28;20372;-67
2021/04/21 12:29:04;;;;;;;;;;;21.00;99.90;;;;;;4959893;28;20069;-67
2021/04/21 12:31:31;;;;;;;3.55;1.80;;;21.30;99.90;;;;;;4981005;28;19937;-67
2021/04/21 12:33:59;;;;;;;4.63;1.90;;;21.40;99.90;;;;;;4971133;28;20106;-66
2021/04/21 12:36:28;;;;;;;2.58;2.38;;;21.80;99.90;;;;;;4980513;28;20041;-65
2021/04/21 12:39:13;;;;;;;14.93;8.77;;;21.60;99.00;;;;;;4970869;28;20150;-65
2021/04/21 12:41:43;;;;;;;3.03;1.95;;;21.30;99.90;;;;;;4981220;28;20158;-66
2021/04/21 12:44:26;;;;;;;12.48;2.00;;;21.30;99.90;;;;;;4971660;28;20448;-66
2021/04/21 12:46:53;;;;;;;3.15;2.08;;;21.10;99.80;;;;;;4967093;28;20110;-66
2021/04/21 12:49:41;;;;;;;2.80;1.83;;;20.20;99.90;;;;;;4972144;28;20490;-66
2021/04/21 12:52:09;;;;;;;3.53;1.98;;;20.90;99.90;;;;;;4975609;28;20027;-65
2021/04/21 12:54:36;;;;;;;6.40;2.08;;;20.90;99.80;;;;;;4973652;28;20054;-65
2021/04/21 12:57:06;;;;;;;4.47;1.80;;;21.10;99.50;;;;;;4979643;28;20054;-66
2021/04/21 12:59:45;;;;;;;5.82;1.88;;;21.60;99.90;;;;;;4973234;28;20047;-67
2021/04/21 13:02:30;;;;;;;5.70;1.92;;;22.20;99.90;;;;;;4979153;28;20058;-66
2021/04/21 13:04:56;;;;;;;4.32;1.63;;;20.80;99.90;;;;;;4975898;28;20031;-66
2021/04/21 13:07:24;;;;;;;7.95;2.10;;;20.00;99.90;;;;;;4978162;28;20042;-66
2021/04/21 13:09:51;;;;;;;3.17;1.50;;;19.80;99.90;;;;;;4974045;28;20023;-66
2021/04/21 13:12:23;;;;;;;9.98;2.33;;;19.90;99.90;;;;;;4978860;28;20113;-66
2021/04/21 13:14:52;;;;;;;1.80;1.70;;;19.90;99.90;;;;;;4973553;28;20380;-66